sensor_id;sensor_type;location;lat;lon;timestamp;pressure;altitude;pressure_sealevel;temperature;humidity
6218;BME280;3142;48.206;11.550;2023-07-13T00:02:11;95691.44;;;21.43;82.36
6218;BME280;3142;48.206;11.550;2023-07-13T00:04:37;95685.84;;;21.45;82.22
6218;BME280;3142;48.206;11.550;2023-07-13T00:07:05;95672.25;;;21.51;82.13
6218;BME280;3142;48.206;11.550;2023-07-13T00:09:31;95680.53;;;21.45;81.89
6218;BME280;3142;48.206;11.550;2023-07-13T00:11:58;95675.50;;;21.38;81.96
6218;BME280;3142;48.206;11.550;2023-07-13T00:14:25;95670.97;;;21.34;82.68
6218;BME280;3142;48.206;11.550;2023-07-13T00:16:52;95663.25;;;21.32;82.77
6218;BME280;3142;48.206;11.550;2023-07-13T00:19:19;95664.03;;;21.38;82.26
6218;BME280;3142;48.206;11.550;2023-07-13T00:21:45;95660.31;;;21.39;82.24
6218;BME280;3142;48.206;11.550;2023-07-13T00:24:16;95672.28;;;21.31;82.39
6218;BME280;3142;48.206;11.550;2023-07-13T00:26:47;95672.03;;;21.27;82.44
6218;BME280;3142;48.206;11.550;2023-07-13T00:29:13;95667.25;;;21.29;82.57
6218;BME280;3142;48.206;11.550;2023-07-13T00:31:41;95670.69;;;21.30;82.38
6218;BME280;3142;48.206;11.550;2023-07-13T00:34:09;95668.84;;;21.31;82.46
6218;BME280;3142;48.206;11.550;2023-07-13T00:36:35;95679.22;;;21.32;82.17
6218;BME280;3142;48.206;11.550;2023-07-13T00:39:02;95688.53;;;21.29;81.91
6218;BME280;3142;48.206;11.550;2023-07-13T00:41:31;95684.56;;;21.27;82.09
6218;BME280;3142;48.206;11.550;2023-07-13T00:43:58;95686.16;;;21.28;81.99
6218;BME280;3142;48.206;11.550;2023-07-13T00:46:27;95674.66;;;21.22;82.07
6218;BME280;3142;48.206;11.550;2023-07-13T00:48:56;95682.91;;;21.21;82.01
6218;BME280;3142;48.206;11.550;2023-07-13T00:51:30;95682.94;;;21.16;82.31
6218;BME280;3142;48.206;11.550;2023-07-13T00:53:59;95679.19;;;21.22;81.68
6218;BME280;3142;48.206;11.550;2023-07-13T00:56:26;95680.78;;;21.23;81.87
6218;BME280;3142;48.206;11.550;2023-07-13T00:58:55;95685.56;;;21.21;81.85
6218;BME280;3142;48.206;11.550;2023-07-13T01:01:21;95692.50;;;21.17;81.94
6218;BME280;3142;48.206;11.550;2023-07-13T01:03:48;95682.13;;;21.15;81.92
6218;BME280;3142;48.206;11.550;2023-07-13T01:06:15;95670.41;;;21.16;82.13
6218;BME280;3142;48.206;11.550;2023-07-13T01:08:43;95656.84;;;21.18;82.01
6218;BME280;3142;48.206;11.550;2023-07-13T01:11:09;95662.41;;;21.21;81.69
6218;BME280;3142;48.206;11.550;2023-07-13T01:13:36;95658.16;;;21.20;81.98
6218;BME280;3142;48.206;11.550;2023-07-13T01:16:10;95650.47;;;21.29;81.70
6218;BME280;3142;48.206;11.550;2023-07-13T01:18:37;95648.31;;;21.36;81.69
6218;BME280;3142;48.206;11.550;2023-07-13T01:21:05;95651.25;;;21.40;81.40
6218;BME280;3142;48.206;11.550;2023-07-13T01:23:32;95647.25;;;21.42;81.44
6218;BME280;3142;48.206;11.550;2023-07-13T01:25:59;95650.69;;;21.48;81.22
6218;BME280;3142;48.206;11.550;2023-07-13T01:28:27;95651.22;;;21.50;81.52
6218;BME280;3142;48.206;11.550;2023-07-13T01:30:55;95650.97;;;21.56;81.35
6218;BME280;3142;48.206;11.550;2023-07-13T01:33:22;95647.47;;;21.61;81.10
6218;BME280;3142;48.206;11.550;2023-07-13T01:35:49;95650.16;;;21.66;81.10
6218;BME280;3142;48.206;11.550;2023-07-13T01:38:20;95656.50;;;21.70;81.60
6218;BME280;3142;48.206;11.550;2023-07-13T01:40:48;95651.97;;;21.71;81.45
6218;BME280;3142;48.206;11.550;2023-07-13T01:43:14;95659.16;;;21.75;81.76
6218;BME280;3142;48.206;11.550;2023-07-13T01:45:41;95652.78;;;21.71;81.93
6218;BME280;3142;48.206;11.550;2023-07-13T01:48:09;95659.19;;;21.70;81.74
6218;BME280;3142;48.206;11.550;2023-07-13T01:50:36;95656.28;;;21.67;81.25
6218;BME280;3142;48.206;11.550;2023-07-13T01:53:03;95656.78;;;21.64;81.24
6218;BME280;3142;48.206;11.550;2023-07-13T01:55:31;95656.25;;;21.62;80.94
6218;BME280;3142;48.206;11.550;2023-07-13T01:57:57;95657.34;;;21.55;80.89
6218;BME280;3142;48.206;11.550;2023-07-13T02:00:24;95657.34;;;21.55;80.77
6218;BME280;3142;48.206;11.550;2023-07-13T02:02:50;95666.69;;;21.53;80.38
6218;BME280;3142;48.206;11.550;2023-07-13T02:05:17;95664.81;;;21.53;80.69
6218;BME280;3142;48.206;11.550;2023-07-13T02:07:44;95663.47;;;21.56;80.60
6218;BME280;3142;48.206;11.550;2023-07-13T02:10:10;95668.53;;;21.57;80.59
6218;BME280;3142;48.206;11.550;2023-07-13T02:12:38;95659.50;;;21.53;80.45
6218;BME280;3142;48.206;11.550;2023-07-13T02:15:06;95661.84;;;21.60;81.08
6218;BME280;3142;48.206;11.550;2023-07-13T02:17:33;95666.63;;;21.63;80.92
6218;BME280;3142;48.206;11.550;2023-07-13T02:20:00;95664.50;;;21.65;80.97
6218;BME280;3142;48.206;11.550;2023-07-13T02:22:26;95665.31;;;21.66;80.60
6218;BME280;3142;48.206;11.550;2023-07-13T02:24:53;95668.00;;;21.66;80.53
6218;BME280;3142;48.206;11.550;2023-07-13T02:27:19;95668.50;;;21.63;80.06
6218;BME280;3142;48.206;11.550;2023-07-13T02:29:47;95675.69;;;21.62;80.05
6218;BME280;3142;48.206;11.550;2023-07-13T02:32:16;95681.03;;;21.62;79.98
6218;BME280;3142;48.206;11.550;2023-07-13T02:34:43;95684.22;;;21.59;80.22
6218;BME280;3142;48.206;11.550;2023-07-13T02:37:09;95694.38;;;21.57;80.53
6218;BME280;3142;48.206;11.550;2023-07-13T02:39:35;95697.81;;;21.57;80.44
6218;BME280;3142;48.206;11.550;2023-07-13T02:42:02;95705.28;;;21.55;80.46
6218;BME280;3142;48.206;11.550;2023-07-13T02:44:29;95711.69;;;21.54;80.84
6218;BME280;3142;48.206;11.550;2023-07-13T02:46:57;95708.22;;;21.49;80.97
6218;BME280;3142;48.206;11.550;2023-07-13T02:49:23;95718.34;;;21.42;81.49
6218;BME280;3142;48.206;11.550;2023-07-13T02:51:50;95722.34;;;21.34;81.78
6218;BME280;3142;48.206;11.550;2023-07-13T02:54:17;95715.94;;;21.30;81.78
6218;BME280;3142;48.206;11.550;2023-07-13T02:56:43;95720.75;;;21.28;81.54
6218;BME280;3142;48.206;11.550;2023-07-13T02:59:10;95715.66;;;21.21;81.82
6218;BME280;3142;48.206;11.550;2023-07-13T03:01:37;95719.66;;;21.19;81.46
6218;BME280;3142;48.206;11.550;2023-07-13T03:04:05;95716.19;;;21.13;82.29
6218;BME280;3142;48.206;11.550;2023-07-13T03:06:32;95719.38;;;21.15;82.26
6218;BME280;3142;48.206;11.550;2023-07-13T03:08:58;95723.38;;;21.13;82.41
6218;BME280;3142;48.206;11.550;2023-07-13T03:11:26;95718.31;;;21.16;81.85
6218;BME280;3142;48.206;11.550;2023-07-13T03:13:53;95724.97;;;21.14;82.26
6218;BME280;3142;48.206;11.550;2023-07-13T03:16:19;95722.84;;;21.11;82.09
6218;BME280;3142;48.206;11.550;2023-07-13T03:18:47;95725.25;;;21.12;82.27
6218;BME280;3142;48.206;11.550;2023-07-13T03:21:15;95735.63;;;21.14;82.31
6218;BME280;3142;48.206;11.550;2023-07-13T03:23:42;95736.41;;;21.09;82.48
6218;BME280;3142;48.206;11.550;2023-07-13T03:26:10;95734.78;;;21.08;82.52
6218;BME280;3142;48.206;11.550;2023-07-13T03:28:37;95728.16;;;21.06;82.64
6218;BME280;3142;48.206;11.550;2023-07-13T03:31:06;95725.50;;;21.00;81.97
6218;BME280;3142;48.206;11.550;2023-07-13T03:33:33;95723.06;;;20.94;82.09
6218;BME280;3142;48.206;11.550;2023-07-13T03:35:59;95726.53;;;20.89;82.18
6218;BME280;3142;48.206;11.550;2023-07-13T03:38:27;95732.38;;;20.91;81.55
6218;BME280;3142;48.206;11.550;2023-07-13T03:40:54;95739.56;;;20.91;81.53
6218;BME280;3142;48.206;11.550;2023-07-13T03:43:20;95739.56;;;20.91;81.08
6218;BME280;3142;48.206;11.550;2023-07-13T03:45:47;95747.81;;;20.89;80.91
6218;BME280;3142;48.206;11.550;2023-07-13T03:48:14;95740.63;;;20.85;81.12
6218;BME280;3142;48.206;11.550;2023-07-13T03:50:40;95740.06;;;20.83;80.89
6218;BME280;3142;48.206;11.550;2023-07-13T03:53:07;95741.94;;;20.82;80.66
6218;BME280;3142;48.206;11.550;2023-07-13T03:55:35;95734.50;;;20.79;81.10
6218;BME280;3142;48.206;11.550;2023-07-13T03:58:27;95740.63;;;20.80;80.67
6218;BME280;3142;48.206;11.550;2023-07-13T04:00:54;95741.94;;;20.77;80.84
6218;BME280;3142;48.206;11.550;2023-07-13T04:03:21;95740.34;;;20.76;81.01
6218;BME280;3142;48.206;11.550;2023-07-13T04:05:48;95743.28;;;20.75;80.44
6218;BME280;3142;48.206;11.550;2023-07-13T04:08:14;95745.94;;;20.75;80.12
6218;BME280;3142;48.206;11.550;2023-07-13T04:10:42;95753.38;;;20.73;80.13
6218;BME280;3142;48.206;11.550;2023-07-13T04:13:09;95758.97;;;20.71;79.59
6218;BME280;3142;48.206;11.550;2023-07-13T04:15:35;95763.19;;;20.67;79.40
6218;BME280;3142;48.206;11.550;2023-07-13T04:18:02;95764.47;;;20.54;79.34
6218;BME280;3142;48.206;11.550;2023-07-13T04:20:29;95767.38;;;20.48;79.15
6218;BME280;3142;48.206;11.550;2023-07-13T04:22:55;95766.31;;;20.49;79.63
6218;BME280;3142;48.206;11.550;2023-07-13T04:25:22;95764.47;;;20.54;79.85
6218;BME280;3142;48.206;11.550;2023-07-13T04:27:50;95773.25;;;20.55;79.59
6218;BME280;3142;48.206;11.550;2023-07-13T04:30:17;95773.50;;;20.43;79.32
6218;BME280;3142;48.206;11.550;2023-07-13T04:32:43;95769.97;;;20.37;79.55
6218;BME280;3142;48.206;11.550;2023-07-13T04:35:10;95771.03;;;20.36;79.71
6218;BME280;3142;48.206;11.550;2023-07-13T04:37:36;95772.63;;;20.37;79.67
6218;BME280;3142;48.206;11.550;2023-07-13T04:40:03;95774.47;;;20.37;79.57
6218;BME280;3142;48.206;11.550;2023-07-13T04:42:31;95779.28;;;20.40;80.08
6218;BME280;3142;48.206;11.550;2023-07-13T04:45:01;95777.75;;;20.44;80.44
6218;BME280;3142;48.206;11.550;2023-07-13T04:47:29;95780.13;;;20.46;79.81
6218;BME280;3142;48.206;11.550;2023-07-13T04:49:56;95772.91;;;20.41;79.98
6218;BME280;3142;48.206;11.550;2023-07-13T04:52:23;95783.59;;;20.51;79.76
6218;BME280;3142;48.206;11.550;2023-07-13T04:54:49;95789.19;;;20.55;79.41
6218;BME280;3142;48.206;11.550;2023-07-13T04:57:15;95793.69;;;20.49;79.36
6218;BME280;3142;48.206;11.550;2023-07-13T04:59:42;95789.44;;;20.43;79.98
6218;BME280;3142;48.206;11.550;2023-07-13T05:02:10;95790.78;;;20.51;79.44
6218;BME280;3142;48.206;11.550;2023-07-13T05:04:36;95799.56;;;20.51;79.96
6218;BME280;3142;48.206;11.550;2023-07-13T05:07:04;95801.19;;;20.57;79.78
6218;BME280;3142;48.206;11.550;2023-07-13T05:09:31;95804.38;;;20.59;79.42
6218;BME280;3142;48.206;11.550;2023-07-13T05:11:58;95804.38;;;20.59;79.67
6218;BME280;3142;48.206;11.550;2023-07-13T05:14:24;95809.72;;;20.64;79.70
6218;BME280;3142;48.206;11.550;2023-07-13T05:16:50;95810.50;;;20.65;79.33
6218;BME280;3142;48.206;11.550;2023-07-13T05:19:18;95802.53;;;20.60;79.61
6218;BME280;3142;48.206;11.550;2023-07-13T05:21:45;95803.59;;;20.59;79.46
6218;BME280;3142;48.206;11.550;2023-07-13T05:24:11;95803.59;;;20.59;79.68
6218;BME280;3142;48.206;11.550;2023-07-13T05:26:37;95803.84;;;20.62;79.93
6218;BME280;3142;48.206;11.550;2023-07-13T05:29:04;95801.47;;;20.61;80.00
6218;BME280;3142;48.206;11.550;2023-07-13T05:31:30;95804.66;;;20.68;79.46
6218;BME280;3142;48.206;11.550;2023-07-13T05:33:57;95798.84;;;20.71;79.08
6218;BME280;3142;48.206;11.550;2023-07-13T05:36:25;95805.75;;;20.72;79.05
6218;BME280;3142;48.206;11.550;2023-07-13T05:38:51;95806.56;;;20.73;78.86
6218;BME280;3142;48.206;11.550;2023-07-13T05:41:17;95805.75;;;20.72;78.91
6218;BME280;3142;48.206;11.550;2023-07-13T05:43:44;95805.47;;;20.68;79.32
6218;BME280;3142;48.206;11.550;2023-07-13T05:46:10;95809.50;;;20.71;79.63
6218;BME280;3142;48.206;11.550;2023-07-13T05:48:37;95806.56;;;20.78;79.21
6218;BME280;3142;48.206;11.550;2023-07-13T05:51:03;95804.75;;;20.88;78.77
6218;BME280;3142;48.206;11.550;2023-07-13T05:53:31;95810.06;;;20.93;78.87
6218;BME280;3142;48.206;11.550;2023-07-13T05:55:57;95807.19;;;21.00;78.43
6218;BME280;3142;48.206;11.550;2023-07-13T05:58:24;95810.63;;;21.06;78.17
6218;BME280;3142;48.206;11.550;2023-07-13T06:00:59;95823.41;;;21.09;78.29
6218;BME280;3142;48.206;11.550;2023-07-13T06:03:26;95819.16;;;21.03;78.46
6218;BME280;3142;48.206;11.550;2023-07-13T06:05:52;95811.41;;;20.96;78.62
6218;BME280;3142;48.206;11.550;2023-07-13T06:08:19;95816.22;;;20.99;78.97
6218;BME280;3142;48.206;11.550;2023-07-13T06:10:46;95823.66;;;21.02;78.65
6218;BME280;3142;48.206;11.550;2023-07-13T06:13:13;95825.31;;;21.13;78.22
6218;BME280;3142;48.206;11.550;2023-07-13T06:15:39;95824.78;;;21.11;78.60
6218;BME280;3142;48.206;11.550;2023-07-13T06:18:06;95828.22;;;21.17;78.76
6218;BME280;3142;48.206;11.550;2023-07-13T06:20:33;95829.09;;;21.27;78.71
6218;BME280;3142;48.206;11.550;2023-07-13T06:23:01;95828.56;;;21.41;77.58
6218;BME280;3142;48.206;11.550;2023-07-13T06:25:27;95826.97;;;21.50;76.46
6218;BME280;3142;48.206;11.550;2023-07-13T06:27:55;95829.91;;;21.53;76.04
6218;BME280;3142;48.206;11.550;2023-07-13T06:30:22;95835.25;;;21.53;76.08
6218;BME280;3142;48.206;11.550;2023-07-13T06:32:48;95837.09;;;21.58;75.07
6218;BME280;3142;48.206;11.550;2023-07-13T06:35:15;95845.38;;;21.67;74.89
6218;BME280;3142;48.206;11.550;2023-07-13T06:37:41;95845.34;;;21.77;74.11
6218;BME280;3142;48.206;11.550;2023-07-13T06:40:08;95844.31;;;21.83;72.49
6218;BME280;3142;48.206;11.550;2023-07-13T06:42:35;95849.63;;;21.83;72.48
6218;BME280;3142;48.206;11.550;2023-07-13T06:45:06;95852.28;;;21.78;70.68
6218;BME280;3142;48.206;11.550;2023-07-13T06:47:32;95857.06;;;21.71;70.55
6218;BME280;3142;48.206;11.550;2023-07-13T06:49:59;95868.53;;;21.66;71.09
6218;BME280;3142;48.206;11.550;2023-07-13T06:52:25;95868.50;;;21.61;71.33
6218;BME280;3142;48.206;11.550;2023-07-13T06:54:52;95868.00;;;21.59;71.00
6218;BME280;3142;48.206;11.550;2023-07-13T06:57:18;95871.44;;;21.59;70.87
6218;BME280;3142;48.206;11.550;2023-07-13T06:59:45;95872.50;;;21.64;70.53
6218;BME280;3142;48.206;11.550;2023-07-13T07:02:13;95873.34;;;21.69;69.54
6218;BME280;3142;48.206;11.550;2023-07-13T07:04:39;95878.13;;;21.72;69.52
6218;BME280;3142;48.206;11.550;2023-07-13T07:07:06;95879.44;;;21.75;69.05
6218;BME280;3142;48.206;11.550;2023-07-13T07:09:32;95884.25;;;21.83;68.94
6218;BME280;3142;48.206;11.550;2023-07-13T07:11:58;95886.66;;;21.84;66.85
6218;BME280;3142;48.206;11.550;2023-07-13T07:14:25;95880.78;;;21.82;66.41
6218;BME280;3142;48.206;11.550;2023-07-13T07:16:51;95891.97;;;21.84;65.80
6218;BME280;3142;48.206;11.550;2023-07-13T07:19:19;95882.13;;;21.85;66.23
6218;BME280;3142;48.206;11.550;2023-07-13T07:21:46;95886.13;;;21.87;66.42
6218;BME280;3142;48.206;11.550;2023-07-13T07:24:12;95881.59;;;21.83;64.66
6218;BME280;3142;48.206;11.550;2023-07-13T07:26:40;95882.63;;;21.77;64.16
6218;BME280;3142;48.206;11.550;2023-07-13T07:29:07;95881.84;;;21.76;63.91
6218;BME280;3142;48.206;11.550;2023-07-13T07:31:33;95887.97;;;21.77;63.55
6218;BME280;3142;48.206;11.550;2023-07-13T07:34:02;95889.03;;;21.76;63.20
6218;BME280;3142;48.206;11.550;2023-07-13T07:36:30;95890.63;;;21.77;64.20
6218;BME280;3142;48.206;11.550;2023-07-13T07:38:56;95891.44;;;21.77;64.81
6218;BME280;3142;48.206;11.550;2023-07-13T07:41:23;95894.91;;;21.78;64.44
6218;BME280;3142;48.206;11.550;2023-07-13T07:43:49;95897.81;;;21.76;64.39
6218;BME280;3142;48.206;11.550;2023-07-13T07:46:15;95902.09;;;21.77;65.11
6218;BME280;3142;48.206;11.550;2023-07-13T07:48:42;95912.25;;;21.80;65.85
6218;BME280;3142;48.206;11.550;2023-07-13T07:51:08;95911.16;;;21.92;65.95
6218;BME280;3142;48.206;11.550;2023-07-13T07:53:36;95923.97;;;21.95;65.58
6218;BME280;3142;48.206;11.550;2023-07-13T07:56:03;95918.63;;;21.95;65.77
6218;BME280;3142;48.206;11.550;2023-07-13T07:58:29;95916.50;;;21.97;64.67
6218;BME280;3142;48.206;11.550;2023-07-13T08:01:02;95920.75;;;21.82;63.39
6218;BME280;3142;48.206;11.550;2023-07-13T08:03:28;95925.53;;;21.70;62.84
6218;BME280;3142;48.206;11.550;2023-07-13T08:05:55;95920.44;;;21.64;62.62
6218;BME280;3142;48.206;11.550;2023-07-13T08:08:21;95930.56;;;21.56;62.10
6218;BME280;3142;48.206;11.550;2023-07-13T08:10:49;95933.22;;;21.51;62.49
6218;BME280;3142;48.206;11.550;2023-07-13T08:13:15;95940.66;;;21.49;61.93
6218;BME280;3142;48.206;11.550;2023-07-13T08:15:42;95943.31;;;21.44;62.31
6218;BME280;3142;48.206;11.550;2023-07-13T08:18:08;95943.84;;;21.41;62.40
6218;BME280;3142;48.206;11.550;2023-07-13T08:20:36;95946.78;;;21.40;61.77
6218;BME280;3142;48.206;11.550;2023-07-13T08:23:03;95951.53;;;21.33;62.32
6218;BME280;3142;48.206;11.550;2023-07-13T08:25:29;95951.25;;;21.29;61.64
6218;BME280;3142;48.206;11.550;2023-07-13T08:27:57;95949.66;;;21.28;61.37
6218;BME280;3142;48.206;11.550;2023-07-13T08:30:24;95945.13;;;21.28;61.69
6218;BME280;3142;48.206;11.550;2023-07-13T08:32:50;95950.47;;;21.28;61.96
6218;BME280;3142;48.206;11.550;2023-07-13T08:35:16;95955.25;;;21.32;61.44
6218;BME280;3142;48.206;11.550;2023-07-13T08:37:43;95958.47;;;21.34;60.82
6218;BME280;3142;48.206;11.550;2023-07-13T08:40:10;95974.16;;;21.35;61.27
6218;BME280;3142;48.206;11.550;2023-07-13T08:42:40;95961.41;;;21.42;60.72
6218;BME280;3142;48.206;11.550;2023-07-13T08:45:14;95966.50;;;21.49;60.57
6218;BME280;3142;48.206;11.550;2023-07-13T08:47:47;95970.00;;;21.59;60.58
6218;BME280;3142;48.206;11.550;2023-07-13T08:50:17;95968.38;;;21.64;59.70
6218;BME280;3142;48.206;11.550;2023-07-13T08:52:45;95962.81;;;21.70;57.18
6218;BME280;3142;48.206;11.550;2023-07-13T08:55:15;95960.16;;;21.75;56.15
6218;BME280;3142;48.206;11.550;2023-07-13T08:57:44;95967.63;;;21.78;57.12
6218;BME280;3142;48.206;11.550;2023-07-13T09:00:14;95969.25;;;21.79;57.18
6218;BME280;3142;48.206;11.550;2023-07-13T09:02:45;95967.63;;;21.78;55.69
6218;BME280;3142;48.206;11.550;2023-07-13T09:05:14;95972.41;;;21.71;55.82
6218;BME280;3142;48.206;11.550;2023-07-13T09:08:02;95962.56;;;21.72;56.90
6218;BME280;3142;48.206;11.550;2023-07-13T09:10:33;95970.28;;;21.73;55.41
6218;BME280;3142;48.206;11.550;2023-07-13T09:13:16;95964.97;;;21.73;54.87
6218;BME280;3142;48.206;11.550;2023-07-13T09:15:48;95971.09;;;21.79;55.06
6218;BME280;3142;48.206;11.550;2023-07-13T09:18:21;95971.91;;;21.84;54.44
6218;BME280;3142;48.206;11.550;2023-07-13T09:20:50;95972.72;;;21.85;54.38
6218;BME280;3142;48.206;11.550;2023-07-13T09:23:23;95972.19;;;21.88;55.03
6218;BME280;3142;48.206;11.550;2023-07-13T09:25:52;95972.19;;;21.93;53.23
6218;BME280;3142;48.206;11.550;2023-07-13T09:28:23;95963.38;;;21.93;53.45
6218;BME280;3142;48.206;11.550;2023-07-13T09:31:03;95969.59;;;22.08;52.59
6218;BME280;3142;48.206;11.550;2023-07-13T09:33:30;95970.63;;;22.12;51.86
6218;BME280;3142;48.206;11.550;2023-07-13T09:35:57;95969.31;;;22.10;52.19
6218;BME280;3142;48.206;11.550;2023-07-13T09:38:26;95971.13;;;22.04;52.45
6218;BME280;3142;48.206;11.550;2023-07-13T09:41:04;95974.59;;;22.05;52.74
6218;BME280;3142;48.206;11.550;2023-07-13T09:43:36;95969.03;;;22.06;52.40
6218;BME280;3142;48.206;11.550;2023-07-13T09:46:04;95976.78;;;22.08;52.24
6218;BME280;3142;48.206;11.550;2023-07-13T09:48:34;95969.31;;;22.15;52.89
6218;BME280;3142;48.206;11.550;2023-07-13T09:51:07;95969.81;;;22.32;53.08
6218;BME280;3142;48.206;11.550;2023-07-13T09:53:41;95973.25;;;22.73;51.87
6218;BME280;3142;48.206;11.550;2023-07-13T09:56:19;95974.84;;;22.95;50.81
6218;BME280;3142;48.206;11.550;2023-07-13T09:58:46;95977.50;;;23.00;50.32
6218;BME280;3142;48.206;11.550;2023-07-13T10:01:13;95978.56;;;22.99;50.43
6218;BME280;3142;48.206;11.550;2023-07-13T10:03:52;95975.09;;;23.09;49.15
6218;BME280;3142;48.206;11.550;2023-07-13T10:06:20;95970.25;;;23.16;48.79
6218;BME280;3142;48.206;11.550;2023-07-13T10:08:49;95965.31;;;23.58;48.92
6218;BME280;3142;48.206;11.550;2023-07-13T10:11:18;95966.16;;;23.44;48.77
6218;BME280;3142;48.206;11.550;2023-07-13T10:13:48;95972.09;;;23.15;48.95
6218;BME280;3142;48.206;11.550;2023-07-13T10:16:19;95980.16;;;23.10;49.48
6218;BME280;3142;48.206;11.550;2023-07-13T10:18:48;95985.38;;;23.41;48.69
6218;BME280;3142;48.206;11.550;2023-07-13T10:21:17;95980.22;;;23.54;48.02
6218;BME280;3142;48.206;11.550;2023-07-13T10:23:49;95981.34;;;23.98;47.58
6218;BME280;3142;48.206;11.550;2023-07-13T10:26:21;95991.13;;;24.51;46.54
6218;BME280;3142;48.206;11.550;2023-07-13T10:28:52;95985.50;;;24.53;45.54
6218;BME280;3142;48.206;11.550;2023-07-13T10:31:22;95990.75;;;24.34;46.14
6218;BME280;3142;48.206;11.550;2023-07-13T10:33:49;95989.47;;;24.21;44.43
6218;BME280;3142;48.206;11.550;2023-07-13T10:36:23;95987.03;;;24.30;44.50
6218;BME280;3142;48.206;11.550;2023-07-13T10:38:55;95984.03;;;24.71;45.17
6218;BME280;3142;48.206;11.550;2023-07-13T10:41:24;95974.97;;;24.91;44.55
6218;BME280;3142;48.206;11.550;2023-07-13T10:43:54;95977.06;;;24.94;44.73
6218;BME280;3142;48.206;11.550;2023-07-13T10:46:25;95982.41;;;24.99;45.35
6218;BME280;3142;48.206;11.550;2023-07-13T10:48:55;95982.34;;;25.52;44.54
6218;BME280;3142;48.206;11.550;2023-07-13T10:51:24;95982.69;;;26.07;42.19
6218;BME280;3142;48.206;11.550;2023-07-13T10:54:16;95986.22;;;26.40;41.04
6218;BME280;3142;48.206;11.550;2023-07-13T10:56:43;95990.44;;;26.27;41.28
6218;BME280;3142;48.206;11.550;2023-07-13T10:59:12;95989.16;;;26.06;42.46
6218;BME280;3142;48.206;11.550;2023-07-13T11:01:54;95988.78;;;25.93;42.60
6218;BME280;3142;48.206;11.550;2023-07-13T11:04:21;95993.06;;;25.94;41.84
6218;BME280;3142;48.206;11.550;2023-07-13T11:06:52;95995.31;;;26.06;40.67
6218;BME280;3142;48.206;11.550;2023-07-13T11:09:35;95983.66;;;26.81;40.45
6218;BME280;3142;48.206;11.550;2023-07-13T11:12:07;95979.63;;;27.11;39.60
6218;BME280;3142;48.206;11.550;2023-07-13T11:14:36;95985.72;;;27.03;40.87
6218;BME280;3142;48.206;11.550;2023-07-13T11:20:20;95987.94;;;26.82;40.38
6218;BME280;3142;48.206;11.550;2023-07-13T11:22:49;95987.66;;;26.97;40.81
6218;BME280;3142;48.206;11.550;2023-07-13T11:25:27;95990.88;;;27.13;40.56
6218;BME280;3142;48.206;11.550;2023-07-13T11:28:10;95990.19;;;27.35;40.15
6218;BME280;3142;48.206;11.550;2023-07-13T11:30:41;95985.44;;;27.32;40.20
6218;BME280;3142;48.206;11.550;2023-07-13T11:33:15;95985.63;;;27.35;40.69
6218;BME280;3142;48.206;11.550;2023-07-13T11:35:49;95973.38;;;27.70;38.97
6218;BME280;3142;48.206;11.550;2023-07-13T11:38:19;95978.50;;;27.81;38.26
6218;BME280;3142;48.206;11.550;2023-07-13T11:40:48;95967.59;;;27.99;39.89
6218;BME280;3142;48.206;11.550;2023-07-13T11:43:15;95971.44;;;28.07;38.99
6218;BME280;3142;48.206;11.550;2023-07-13T11:45:42;95966.50;;;28.00;38.44
6218;BME280;3142;48.206;11.550;2023-07-13T11:48:18;95961.25;;;27.82;37.43
6218;BME280;3142;48.206;11.550;2023-07-13T11:50:52;95954.94;;;27.50;37.43
6218;BME280;3142;48.206;11.550;2023-07-13T11:53:20;95957.16;;;27.21;38.77
6218;BME280;3142;48.206;11.550;2023-07-13T11:55:47;95954.66;;;27.10;38.38
6218;BME280;3142;48.206;11.550;2023-07-13T11:58:18;95950.78;;;27.17;37.59
6218;BME280;3142;48.206;11.550;2023-07-13T12:00:46;95953.84;;;27.37;37.35
6218;BME280;3142;48.206;11.550;2023-07-13T12:03:18;95960.09;;;27.60;37.90
6218;BME280;3142;48.206;11.550;2023-07-13T12:05:57;95949.97;;;27.57;36.98
6218;BME280;3142;48.206;11.550;2023-07-13T12:08:24;95957.44;;;27.33;37.06
6218;BME280;3142;48.206;11.550;2023-07-13T12:10:57;95952.72;;;26.97;38.08
6218;BME280;3142;48.206;11.550;2023-07-13T12:13:26;95956.59;;;26.77;38.92
6218;BME280;3142;48.206;11.550;2023-07-13T12:15:53;95949.91;;;26.61;39.44
6218;BME280;3142;48.206;11.550;2023-07-13T12:18:22;95941.88;;;26.75;39.43
6218;BME280;3142;48.206;11.550;2023-07-13T12:20:50;95945.88;;;26.91;39.25
6218;BME280;3142;48.206;11.550;2023-07-13T12:23:23;95941.94;;;27.16;38.25
6218;BME280;3142;48.206;11.550;2023-07-13T12:25:51;95934.75;;;27.25;38.85
6218;BME280;3142;48.206;11.550;2023-07-13T12:28:21;95937.72;;;27.24;38.05
6218;BME280;3142;48.206;11.550;2023-07-13T12:30:49;95931.50;;;27.01;38.93
6218;BME280;3142;48.206;11.550;2023-07-13T12:33:16;95932.53;;;26.86;39.77
6218;BME280;3142;48.206;11.550;2023-07-13T12:35:46;95938.91;;;26.90;39.18
6218;BME280;3142;48.206;11.550;2023-07-13T12:38:13;95935.94;;;26.92;38.23
6218;BME280;3142;48.206;11.550;2023-07-13T12:40:41;95929.47;;;26.93;37.67
6218;BME280;3142;48.206;11.550;2023-07-13T12:43:12;95930.41;;;26.69;36.93
6218;BME280;3142;48.206;11.550;2023-07-13T12:45:39;95931.63;;;26.63;37.06
6218;BME280;3142;48.206;11.550;2023-07-13T12:48:21;95929.91;;;26.53;38.40
6218;BME280;3142;48.206;11.550;2023-07-13T12:50:49;95922.59;;;26.73;37.87
6218;BME280;3142;48.206;11.550;2023-07-13T12:53:19;95925.66;;;26.80;37.43
6218;BME280;3142;48.206;11.550;2023-07-13T12:55:49;95917.31;;;26.81;36.28
6218;BME280;3142;48.206;11.550;2023-07-13T12:58:25;95921.28;;;26.84;37.57
6218;BME280;3142;48.206;11.550;2023-07-13T13:00:54;95919.69;;;26.97;37.06
6218;BME280;3142;48.206;11.550;2023-07-13T13:03:25;95922.59;;;27.00;36.01
6218;BME280;3142;48.206;11.550;2023-07-13T13:05:59;95919.63;;;26.88;36.28
6218;BME280;3142;48.206;11.550;2023-07-13T13:08:30;95910.66;;;26.93;36.68
6218;BME280;3142;48.206;11.550;2023-07-13T13:10:58;95911.75;;;26.92;35.66
6218;BME280;3142;48.206;11.550;2023-07-13T13:13:25;95907.78;;;26.89;35.42
6218;BME280;3142;48.206;11.550;2023-07-13T13:15:51;95912.53;;;26.78;36.48
6218;BME280;3142;48.206;11.550;2023-07-13T13:18:19;95903.69;;;26.78;36.86
6218;BME280;3142;48.206;11.550;2023-07-13T13:20:47;95909.66;;;26.89;36.72